Time;durP1;ratioP1;P1;durP2;ratioP2;P2;SDS_P1;SDS_P2;PMS_P1;PMS_P2;Temp;Humidity;BMP_temperature;BMP_pressure;BME280_temperature;BME280_humidity;BME280_pressure;Samples;Min_cycle;Max_cycle;Signal;HPM_P1;HPM_P2
2022/10/29 00:00:37;;;;;;;27.95;17.50;;;;;;;;;;5074533;28;20040;-72
2022/10/29 00:03:03;;;;;;;21.95;17.52;;;;;;;;;;5074412;28;20133;-71
2022/10/29 00:05:29;;;;;;;28.38;19.70;;;;;;;;;;5070581;28;20386;-71
2022/10/29 00:07:56;;;;;;;22.02;16.70;;;;;;;;;;5072715;28;20024;-72
2022/10/29 00:10:22;;;;;;;28.27;20.92;;;;;;;;;;5071779;28;20057;-72
2022/10/29 00:12:48;;;;;;;25.13;19.52;;;;;;;;;;5074375;28;20055;-74
2022/10/29 00:15:14;;;;;;;21.05;16.90;;;;;;;;;;5074126;28;20067;-73
2022/10/29 00:17:40;;;;;;;21.70;16.63;;;;;;;;;;5074042;28;20040;-70
2022/10/29 00:20:06;;;;;;;22.38;16.40;;;;;;;;;;5073930;28;20043;-74
2022/10/29 00:22:33;;;;;;;20.55;16.50;;;;;;;;;;5073894;28;20031;-70
2022/10/29 00:24:59;;;;;;;19.95;15.52;;;;;;;;;;5073849;28;20031;-73
2022/10/29 00:27:25;;;;;;;17.88;15.07;;;;;;;;;;5073637;28;20017;-72
2022/10/29 00:29:51;;;;;;;22.35;15.32;;;;;;;;;;5073797;28;20032;-73
2022/10/29 00:32:17;;;;;;;18.35;14.98;;;;;;;;;;5073452;28;20050;-72
2022/10/29 00:34:43;;;;;;;19.45;15.50;;;;;;;;;;5073673;28;20052;-72
2022/10/29 00:37:09;;;;;;;20.85;15.38;;;;;;;;;;5073391;28;20025;-72
2022/10/29 00:39:35;;;;;;;20.33;14.85;;;;;;;;;;5055485;28;20415;-72
2022/10/29 00:42:03;;;;;;;18.20;14.43;;;;;;;;;;5066047;28;20490;-71
2022/10/29 00:44:29;;;;;;;18.85;14.88;;;;;;;;;;5073409;28;20020;-72
2022/10/29 00:47:03;;;;;;;21.00;15.23;;;;;;;;;;5073213;28;20103;-74
2022/10/29 00:49:31;;;;;;;19.38;15.23;;;;;;;;;;5073213;28;20394;-74
2022/10/29 00:51:59;;;;;;;19.17;14.65;;;;;;;;;;5073114;28;20050;-73
2022/10/29 00:54:27;;;;;;;17.25;14.27;;;;;;;;;;5055203;28;20745;-74
2022/10/29 00:57:13;;;;;;;17.38;14.23;;;;;;;;;;5073239;28;20066;-73
2022/10/29 00:59:40;;;;;;;20.80;13.63;;;;;;;;;;5073015;28;20098;-75
2022/10/29 01:02:06;;;;;;;18.17;15.00;;;;;;;;;;5073316;28;20029;-76
2022/10/29 01:04:33;;;;;;;18.90;15.15;;;;;;;;;;5072693;28;20467;-75
2022/10/29 01:06:59;;;;;;;21.05;14.95;;;;;;;;;;5073070;28;20029;-75
2022/10/29 01:09:25;;;;;;;19.08;14.50;;;;;;;;;;5072848;28;20505;-75
2022/10/29 01:12:10;;;;;;;17.27;14.57;;;;;;;;;;5061102;28;20039;-74
2022/10/29 01:14:54;;;;;;;17.77;13.88;;;;;;;;;;5073179;28;20024;-74
2022/10/29 01:17:29;;;;;;;16.85;13.85;;;;;;;;;;5072854;28;20044;-73
2022/10/29 01:20:06;;;;;;;16.65;14.10;;;;;;;;;;5054593;28;20395;-73
2022/10/29 01:22:58;;;;;;;16.13;13.23;;;;;;;;;;5072516;28;20028;-72
2022/10/29 01:25:42;;;;;;;15.50;12.90;;;;;;;;;;5068115;28;20058;-73
2022/10/29 01:28:27;;;;;;;16.70;13.82;;;;;;;;;;5072624;28;20032;-75
2022/10/29 01:31:05;;;;;;;18.17;15.35;;;;;;;;;;5059475;28;20104;-71
2022/10/29 01:33:41;;;;;;;15.30;12.98;;;;;;;;;;5072323;28;20525;-71
2022/10/29 01:36:10;;;;;;;17.77;12.50;;;;;;;;;;5072363;28;20043;-70
2022/10/29 01:38:36;;;;;;;18.95;13.95;;;;;;;;;;5072329;28;20035;-70
2022/10/29 01:41:20;;;;;;;14.82;12.95;;;;;;;;;;5065833;28;20028;-73
2022/10/29 01:44:13;;;;;;;14.55;13.02;;;;;;;;;;5072183;28;20035;-72
2022/10/29 01:46:46;;;;;;;17.63;12.73;;;;;;;;;;5059670;28;20028;-72
2022/10/29 01:49:14;;;;;;;14.52;12.95;;;;;;;;;;5071777;28;20036;-71
2022/10/29 01:51:41;;;;;;;15.18;13.15;;;;;;;;;;5072182;28;20490;-72
2022/10/29 01:54:09;;;;;;;14.63;12.20;;;;;;;;;;5054232;28;20513;-73
2022/10/29 01:56:35;;;;;;;13.13;11.82;;;;;;;;;;5072092;28;20032;-73
2022/10/29 01:59:02;;;;;;;14.82;12.07;;;;;;;;;;5072238;28;20047;-72
2022/10/29 02:01:54;;;;;;;13.20;11.80;;;;;;;;;;5071835;28;20033;-73
2022/10/29 02:04:29;;;;;;;13.10;11.77;;;;;;;;;;5030997;28;20124;-73
2022/10/29 02:06:55;;;;;;;14.40;12.77;;;;;;;;;;5058819;28;20032;-75
2022/10/29 02:09:43;;;;;;;14.45;11.75;;;;;;;;;;5072424;28;20029;-74
2022/10/29 02:12:21;;;;;;;15.20;11.55;;;;;;;;;;5071022;28;20378;-72
2022/10/29 02:14:53;;;;;;;14.70;11.68;;;;;;;;;;5071983;28;20020;-72
2022/10/29 02:17:20;;;;;;;27.40;14.00;;;;;;;;;;5054093;28;20032;-71
2022/10/29 02:19:46;;;;;;;17.80;14.25;;;;;;;;;;5071487;28;20036;-72
2022/10/29 02:22:12;;;;;;;21.05;16.88;;;;;;;;;;5071912;28;20117;-73
2022/10/29 02:24:38;;;;;;;16.88;13.23;;;;;;;;;;5071756;28;20032;-74
2022/10/29 02:27:04;;;;;;;14.68;12.55;;;;;;;;;;5071896;28;20029;-73
2022/10/29 02:29:30;;;;;;;14.27;12.52;;;;;;;;;;5072013;28;20021;-72
2022/10/29 02:31:56;;;;;;;16.15;12.60;;;;;;;;;;5053506;28;20076;-72
2022/10/29 02:34:22;;;;;;;14.45;11.32;;;;;;;;;;5071709;28;20415;-73
2022/10/29 02:36:48;;;;;;;14.55;11.32;;;;;;;;;;5071841;28;20016;-71
2022/10/29 02:39:14;;;;;;;13.57;11.63;;;;;;;;;;5071678;28;20029;-73
2022/10/29 02:41:41;;;;;;;14.23;11.15;;;;;;;;;;5065673;28;20034;-72
2022/10/29 02:44:07;;;;;;;15.00;11.90;;;;;;;;;;5071783;28;20031;-72
2022/10/29 02:46:38;;;;;;;14.50;11.77;;;;;;;;;;5071607;28;20475;-73
2022/10/29 02:49:04;;;;;;;14.38;11.65;;;;;;;;;;5071754;28;20044;-72
2022/10/29 02:51:30;;;;;;;14.82;11.57;;;;;;;;;;5071607;28;20016;-71
2022/10/29 02:53:56;;;;;;;13.23;11.43;;;;;;;;;;5071768;28;20028;-72
2022/10/29 02:56:22;;;;;;;15.20;11.90;;;;;;;;;;5071255;28;20017;-70
2022/10/29 02:58:49;;;;;;;14.15;11.98;;;;;;;;;;5071676;28;20383;-69
2022/10/29 03:01:15;;;;;;;12.23;11.02;;;;;;;;;;5071522;28;20054;-69
2022/10/29 03:03:41;;;;;;;15.13;11.23;;;;;;;;;;5057483;28;20058;-69
2022/10/29 03:06:14;;;;;;;15.50;11.60;;;;;;;;;;5075421;28;20024;-73
2022/10/29 03:08:40;;;;;;;14.15;12.25;;;;;;;;;;5062487;28;20092;-71
2022/10/29 03:11:06;;;;;;;13.52;11.85;;;;;;;;;;5065503;28;20028;-71
2022/10/29 03:13:32;;;;;;;18.40;12.32;;;;;;;;;;5074400;28;20105;-71
2022/10/29 03:15:58;;;;;;;12.50;11.07;;;;;;;;;;5075079;28;20486;-72
2022/10/29 03:18:24;;;;;;;13.98;11.65;;;;;;;;;;5074802;28;20486;-72
2022/10/29 03:20:51;;;;;;;12.90;11.43;;;;;;;;;;5074922;28;20078;-72
2022/10/29 03:23:17;;;;;;;13.90;12.27;;;;;;;;;;5074939;28;20025;-73
2022/10/29 03:25:43;;;;;;;14.00;11.30;;;;;;;;;;5056915;28;20020;-72
2022/10/29 03:28:09;;;;;;;13.43;12.10;;;;;;;;;;5056997;28;20035;-72
2022/10/29 03:30:35;;;;;;;13.50;12.07;;;;;;;;;;5074380;28;20487;-72
2022/10/29 03:33:01;;;;;;;12.75;11.43;;;;;;;;;;5074789;28;20017;-72
2022/10/29 03:35:27;;;;;;;14.95;11.55;;;;;;;;;;5074816;28;20027;-71
2022/10/29 03:37:53;;;;;;;14.18;12.68;;;;;;;;;;5056855;28;20021;-71
2022/10/29 03:40:19;;;;;;;13.48;12.07;;;;;;;;;;5071164;28;20021;-71
2022/10/29 03:42:46;;;;;;;15.60;13.35;;;;;;;;;;5072395;28;20037;-70
2022/10/29 03:45:12;;;;;;;16.45;14.05;;;;;;;;;;5074362;28;20483;-72
2022/10/29 03:47:38;;;;;;;15.50;13.85;;;;;;;;;;5074222;28;20060;-72
2022/10/29 03:50:04;;;;;;;18.85;14.27;;;;;;;;;;5074697;28;20103;-73
2022/10/29 03:52:31;;;;;;;14.57;12.43;;;;;;;;;;5074608;28;20112;-73
2022/10/29 03:54:57;;;;;;;16.92;13.27;;;;;;;;;;5074643;28;20031;-71
2022/10/29 03:57:23;;;;;;;15.02;12.70;;;;;;;;;;5056552;28;20029;-74
2022/10/29 03:59:49;;;;;;;14.48;12.35;;;;;;;;;;5074186;28;20067;-74
2022/10/29 04:02:15;;;;;;;14.20;12.43;;;;;;;;;;5074265;28;20032;-71
2022/10/29 04:04:41;;;;;;;15.02;12.50;;;;;;;;;;5074452;28;20025;-73
2022/10/29 04:07:07;;;;;;;13.70;12.25;;;;;;;;;;5074875;28;20035;-72
2022/10/29 04:09:33;;;;;;;16.35;12.00;;;;;;;;;;5074395;28;20025;-72
2022/10/29 04:12:00;;;;;;;18.92;13.05;;;;;;;;;;5064035;28;20044;-72
2022/10/29 04:14:26;;;;;;;15.05;12.75;;;;;;;;;;5074196;28;20013;-73
2022/10/29 04:16:52;;;;;;;18.20;13.75;;;;;;;;;;5073837;28;20036;-72
2022/10/29 04:19:18;;;;;;;14.73;12.15;;;;;;;;;;5074405;28;20032;-75
2022/10/29 04:21:44;;;;;;;17.17;12.65;;;;;;;;;;5074044;28;20039;-72
2022/10/29 04:24:10;;;;;;;15.93;12.98;;;;;;;;;;5074014;28;20020;-73
2022/10/29 04:26:36;;;;;;;19.95;13.43;;;;;;;;;;5073818;28;20143;-74
2022/10/29 04:29:02;;;;;;;17.90;13.98;;;;;;;;;;5073699;28;20044;-73
2022/10/29 04:31:28;;;;;;;22.35;13.68;;;;;;;;;;5073602;28;20024;-73
2022/10/29 04:33:55;;;;;;;17.50;14.30;;;;;;;;;;5073259;28;20470;-71
2022/10/29 04:36:21;;;;;;;18.55;13.70;;;;;;;;;;5073541;28;20025;-71
2022/10/29 04:38:47;;;;;;;16.75;12.30;;;;;;;;;;5073584;28;20020;-71
2022/10/29 04:41:13;;;;;;;19.98;13.05;;;;;;;;;;5054922;28;20470;-72
2022/10/29 04:43:39;;;;;;;17.13;12.50;;;;;;;;;;5073691;28;20095;-72
2022/10/29 04:46:05;;;;;;;13.52;12.02;;;;;;;;;;5073542;28;20031;-70
2022/10/29 04:48:31;;;;;;;18.17;12.25;;;;;;;;;;5073193;28;20782;-73
2022/10/29 04:50:58;;;;;;;13.40;12.00;;;;;;;;;;5073308;28;20032;-72
2022/10/29 04:53:24;;;;;;;14.32;12.43;;;;;;;;;;5073112;28;20023;-72
2022/10/29 04:55:50;;;;;;;16.98;12.68;;;;;;;;;;5073197;28;20024;-76
2022/10/29 04:58:17;;;;;;;14.75;12.50;;;;;;;;;;5073061;28;20028;-72
2022/10/29 05:00:43;;;;;;;16.90;13.20;;;;;;;;;;5073062;28;20394;-75
2022/10/29 05:03:10;;;;;;;13.20;11.73;;;;;;;;;;5072820;28;20020;-70
2022/10/29 05:05:37;;;;;;;17.73;12.73;;;;;;;;;;5072898;28;20095;-72
2022/10/29 05:08:04;;;;;;;14.82;13.07;;;;;;;;;;5073046;28;20020;-73
2022/10/29 05:10:31;;;;;;;17.63;13.43;;;;;;;;;;5068473;28;20101;-71
2022/10/29 05:12:58;;;;;;;16.27;13.40;;;;;;;;;;5067115;28;20044;-71
2022/10/29 05:15:24;;;;;;;17.20;14.15;;;;;;;;;;5072900;28;20083;-70
2022/10/29 05:17:50;;;;;;;20.67;14.05;;;;;;;;;;5072917;28;20583;-73
2022/10/29 05:20:17;;;;;;;19.67;14.82;;;;;;;;;;5072959;28;20423;-73
2022/10/29 05:22:43;;;;;;;16.23;14.38;;;;;;;;;;5072846;28;20398;-71
2022/10/29 05:25:09;;;;;;;16.88;14.85;;;;;;;;;;5072098;28;20082;-72
2022/10/29 05:27:35;;;;;;;18.45;16.48;;;;;;;;;;5072940;28;20032;-73
2022/10/29 05:30:01;;;;;;;19.23;16.52;;;;;;;;;;5072812;28;20530;-73
2022/10/29 05:32:30;;;;;;;19.23;16.45;;;;;;;;;;5072797;28;20486;-72
2022/10/29 05:34:56;;;;;;;24.05;16.38;;;;;;;;;;5072653;28;20514;-72
2022/10/29 05:37:24;;;;;;;20.58;16.73;;;;;;;;;;5072544;28;20029;-71
2022/10/29 05:39:50;;;;;;;25.77;16.80;;;;;;;;;;5072892;28;20021;-72
2022/10/29 05:42:17;;;;;;;22.95;16.38;;;;;;;;;;5067305;28;20035;-72
2022/10/29 05:44:43;;;;;;;19.35;15.32;;;;;;;;;;5072665;28;20025;-72
2022/10/29 05:47:09;;;;;;;20.60;15.75;;;;;;;;;;5072389;28;20117;-72
2022/10/29 05:49:35;;;;;;;24.92;17.20;;;;;;;;;;5054246;28;20390;-72
2022/10/29 05:52:01;;;;;;;24.30;19.30;;;;;;;;;;5072690;28;20031;-72
2022/10/29 05:54:27;;;;;;;28.63;19.55;;;;;;;;;;5072347;28;20028;-72
2022/10/29 05:56:53;;;;;;;27.27;19.60;;;;;;;;;;5054153;28;20033;-73
2022/10/29 05:59:19;;;;;;;24.98;20.17;;;;;;;;;;5072504;28;20021;-73
2022/10/29 06:01:45;;;;;;;27.30;19.42;;;;;;;;;;5058532;28;20390;-74
2022/10/29 06:04:11;;;;;;;25.02;18.38;;;;;;;;;;5072266;28;20020;-75
2022/10/29 06:06:37;;;;;;;37.22;19.55;;;;;;;;;;5071829;28;20035;-74
2022/10/29 06:09:04;;;;;;;32.50;20.60;;;;;;;;;;5072096;28;20475;-73
2022/10/29 06:11:30;;;;;;;29.33;22.48;;;;;;;;;;5061929;28;20112;-74
2022/10/29 06:13:56;;;;;;;31.67;24.42;;;;;;;;;;5071058;28;20021;-72
2022/10/29 06:16:22;;;;;;;25.08;20.10;;;;;;;;;;5072022;28;20036;-74
2022/10/29 06:18:48;;;;;;;24.05;18.35;;;;;;;;;;5071843;28;20048;-73
2022/10/29 06:21:14;;;;;;;23.67;18.48;;;;;;;;;;5071745;28;20033;-71
2022/10/29 06:23:40;;;;;;;26.17;19.05;;;;;;;;;;5071931;28;20099;-71
2022/10/29 06:26:06;;;;;;;22.48;18.73;;;;;;;;;;5071913;28;20382;-73
2022/10/29 06:28:33;;;;;;;29.52;21.60;;;;;;;;;;5071689;28;20056;-72
2022/10/29 06:30:59;;;;;;;32.80;23.38;;;;;;;;;;5071798;28;20035;-72
2022/10/29 06:33:25;;;;;;;36.72;24.38;;;;;;;;;;5071681;28;20429;-73
2022/10/29 06:35:51;;;;;;;37.78;25.05;;;;;;;;;;5072554;28;20479;-72
2022/10/29 06:38:17;;;;;;;37.67;23.67;;;;;;;;;;5074861;28;20031;-73
2022/10/29 06:40:51;;;;;;;47.97;23.42;;;;;;;;;;5070596;28;20036;-75
2022/10/29 06:43:17;;;;;;;30.35;20.77;;;;;;;;;;5075971;28;20020;-73
2022/10/29 06:45:43;;;;;;;23.23;19.58;;;;;;;;;;5075451;28;20140;-72
2022/10/29 06:48:09;;;;;;;30.08;20.85;;;;;;;;;;5075422;28;20514;-71
2022/10/29 06:50:35;;;;;;;23.98;19.55;;;;;;;;;;5075519;28;20391;-72
2022/10/29 06:53:03;;;;;;;26.13;18.30;;;;;;;;;;5074405;28;20020;-70
2022/10/29 06:55:29;;;;;;;24.77;17.73;;;;;;;;;;5075781;28;20021;-72
2022/10/29 06:57:57;;;;;;;53.45;35.08;;;;;;;;;;5075574;28;20133;-70
2022/10/29 07:00:23;;;;;;;28.77;20.73;;;;;;;;;;5075316;28;20167;-71
2022/10/29 07:02:50;;;;;;;24.75;16.77;;;;;;;;;;5075174;28;20028;-71
2022/10/29 07:05:16;;;;;;;24.88;19.60;;;;;;;;;;5075240;28;20021;-71
2022/10/29 07:07:42;;;;;;;26.90;16.70;;;;;;;;;;5075040;28;20036;-71
2022/10/29 07:10:08;;;;;;;25.58;15.63;;;;;;;;;;5074280;28;20574;-72
2022/10/29 07:12:40;;;;;;;19.88;14.32;;;;;;;;;;5066086;28;20024;-72
2022/10/29 07:15:07;;;;;;;17.42;14.20;;;;;;;;;;5074207;28;20078;-72
2022/10/29 07:17:33;;;;;;;17.75;13.63;;;;;;;;;;5057029;28;20025;-71
2022/10/29 07:19:59;;;;;;;15.23;13.52;;;;;;;;;;5056769;28;20033;-71
2022/10/29 07:22:25;;;;;;;18.00;13.48;;;;;;;;;;5074705;28;20039;-71
2022/10/29 07:24:51;;;;;;;13.73;11.48;;;;;;;;;;5074616;28;20017;-72
2022/10/29 07:27:17;;;;;;;28.17;15.45;;;;;;;;;;5074950;28;20016;-70
2022/10/29 07:29:44;;;;;;;23.42;13.35;;;;;;;;;;5074797;28;20025;-72
2022/10/29 07:32:10;;;;;;;13.63;12.07;;;;;;;;;;5074708;28;20027;-71
2022/10/29 07:34:36;;;;;;;18.98;12.20;;;;;;;;;;5056830;28;20450;-71
2022/10/29 07:37:02;;;;;;;13.77;11.77;;;;;;;;;;5053208;28;20127;-71
2022/10/29 07:39:28;;;;;;;16.95;11.35;;;;;;;;;;5074521;28;20095;-72
2022/10/29 07:41:54;;;;;;;13.52;11.65;;;;;;;;;;5072559;28;20424;-72
2022/10/29 07:44:20;;;;;;;16.02;10.68;;;;;;;;;;5074337;28;20089;-71
2022/10/29 07:46:47;;;;;;;12.18;10.13;;;;;;;;;;5074056;28;20040;-74
2022/10/29 07:49:13;;;;;;;15.07;11.13;;;;;;;;;;5073322;28;20493;-73
2022/10/29 07:51:39;;;;;;;22.05;12.75;;;;;;;;;;5074449;28;20451;-74
2022/10/29 07:54:05;;;;;;;18.55;12.27;;;;;;;;;;5073663;28;20020;-73
2022/10/29 07:56:31;;;;;;;15.43;12.80;;;;;;;;;;5074371;28;20035;-73
2022/10/29 07:58:57;;;;;;;17.27;12.10;;;;;;;;;;5074239;28;20025;-76
2022/10/29 08:01:23;;;;;;;15.07;12.15;;;;;;;;;;5074078;28;20021;-72
2022/10/29 08:03:50;;;;;;;23.00;14.27;;;;;;;;;;5074164;28;20374;-73
2022/10/29 08:06:16;;;;;;;18.88;14.43;;;;;;;;;;5073969;28;20063;-72
2022/10/29 08:08:42;;;;;;;16.65;12.70;;;;;;;;;;5073409;28;20020;-72
2022/10/29 08:11:08;;;;;;;14.43;11.98;;;;;;;;;;5049360;28;20033;-71
2022/10/29 08:13:34;;;;;;;19.13;14.02;;;;;;;;;;5074047;28;20091;-71
2022/10/29 08:16:00;;;;;;;19.33;12.23;;;;;;;;;;5068421;28;20103;-70
2022/10/29 08:18:26;;;;;;;18.88;14.02;;;;;;;;;;5070838;28;20020;-71
2022/10/29 08:20:52;;;;;;;18.45;13.38;;;;;;;;;;5073290;28;20039;-71
2022/10/29 08:23:18;;;;;;;26.60;13.88;;;;;;;;;;5073454;28;20491;-73
2022/10/29 08:25:44;;;;;;;19.45;13.40;;;;;;;;;;5073185;28;20032;-71
2022/10/29 08:28:12;;;;;;;20.42;13.65;;;;;;;;;;5070543;28;20024;-72
2022/10/29 08:30:38;;;;;;;18.73;15.65;;;;;;;;;;5067026;28;20483;-74
2022/10/29 08:33:04;;;;;;;24.65;14.23;;;;;;;;;;5073286;28;20021;-74
2022/10/29 08:35:31;;;;;;;20.88;14.27;;;;;;;;;;5072086;28;20513;-72
2022/10/29 08:37:57;;;;;;;23.33;14.10;;;;;;;;;;5059486;28;20066;-69
2022/10/29 08:40:23;;;;;;;19.90;15.55;;;;;;;;;;5070855;28;20028;-72
2022/10/29 08:43:01;;;;;;;23.80;15.15;;;;;;;;;;5071770;28;20040;-71
2022/10/29 08:45:59;;;;;;;27.92;20.83;;;;;;;;;;5073606;28;20130;-71
2022/10/29 08:48:25;;;;;;;23.02;16.25;;;;;;;;;;4955721;28;20043;-71
2022/10/29 08:51:06;;;;;;;22.10;13.05;;;;;;;;;;4972066;28;20085;-72
2022/10/29 08:53:37;;;;;;;19.90;13.88;;;;;;;;;;4972223;28;20442;-73
2022/10/29 08:56:05;;;;;;;24.60;13.93;;;;;;;;;;4972095;28;20053;-71
2022/10/29 08:58:43;;;;;;;42.63;22.70;;;;;;;;;;4971952;28;20417;-75
2022/10/29 09:01:10;;;;;;;20.50;12.77;;;;;;;;;;4971971;28;20078;-75
2022/10/29 09:03:36;;;;;;;18.75;13.20;;;;;;;;;;4971793;28;20034;-75
2022/10/29 09:06:19;;;;;;;19.50;13.05;;;;;;;;;;4971982;28;20158;-71
2022/10/29 09:08:54;;;;;;;13.57;8.75;;;;;;;;;;4972055;28;20402;-72
2022/10/29 09:11:23;;;;;;;23.15;12.50;;;;;;;;;;4962911;28;20035;-72
2022/10/29 09:14:02;;;;;;;24.17;13.35;;;;;;;;;;4971901;28;20085;-72
2022/10/29 09:16:28;;;;;;;28.02;12.93;;;;;;;;;;4971289;28;20037;-73
2022/10/29 09:19:01;;;;;;;18.33;12.95;;;;;;;;;;4971759;28;20046;-71
2022/10/29 09:21:37;;;;;;;13.20;10.45;;;;;;;;;;4971642;28;20106;-71
2022/10/29 09:24:18;;;;;;;21.05;13.38;;;;;;;;;;5024682;28;20111;-70
2022/10/29 09:26:44;;;;;;;;;;;;;;;;;;5071769;28;20092;-72
2022/10/29 09:29:26;;;;;;;16.98;13.63;;;;;;;;;;5072628;28;19986;-71
2022/10/29 09:31:59;;;;;;;16.67;10.00;;;;;;;;;;5072572;28;20028;-71
2022/10/29 09:34:29;;;;;;;19.80;10.35;;;;;;;;;;5072518;28;20159;-70
2022/10/29 09:36:56;;;;;;;13.60;10.87;;;;;;;;;;5072417;28;20020;-71
2022/10/29 09:39:28;;;;;;;17.45;13.27;;;;;;;;;;5072592;28;20250;-72
2022/10/29 09:41:56;;;;;;;13.48;8.90;;;;;;;;;;5068695;28;20517;-73
2022/10/29 09:44:39;;;;;;;17.17;9.90;;;;;;;;;;5072618;28;20016;-72
2022/10/29 09:47:17;;;;;;;18.55;10.27;;;;;;;;;;5071851;28;20524;-72
2022/10/29 09:49:58;;;;;;;11.30;9.50;;;;;;;;;;5072045;28;20410;-72
2022/10/29 09:52:30;;;;;;;13.77;8.80;;;;;;;;;;5072056;28;20107;-72
2022/10/29 09:54:58;;;;;;;19.17;10.15;;;;;;;;;;5071924;28;20150;-73
2022/10/29 09:57:28;;;;;;;18.17;9.98;;;;;;;;;;5072121;28;20108;-72
2022/10/29 09:59:56;;;;;;;17.27;9.68;;;;;;;;;;5071990;28;20021;-73
2022/10/29 10:02:36;;;;;;;16.00;9.90;;;;;;;;;;5071896;28;20068;-73
2022/10/29 10:05:06;;;;;;;16.42;10.20;;;;;;;;;;5071823;28;20435;-72
2022/10/29 10:07:32;;;;;;;15.25;9.52;;;;;;;;;;5071960;28;20021;-73
2022/10/29 10:09:59;;;;;;;13.68;10.75;;;;;;;;;;5071677;28;20020;-71
2022/10/29 10:12:45;;;;;;;14.85;10.25;;;;;;;;;;5062580;28;20017;-72
2022/10/29 10:15:21;;;;;;;14.75;10.02;;;;;;;;;;5053624;28;20024;-73
2022/10/29 10:17:53;;;;;;;13.50;10.82;;;;;;;;;;5071727;28;20028;-73
2022/10/29 10:20:27;;;;;;;16.08;10.18;;;;;;;;;;5071633;28;20081;-74
2022/10/29 10:22:53;;;;;;;15.82;10.73;;;;;;;;;;5071824;28;20029;-74
2022/10/29 10:25:36;;;;;;;21.55;11.18;;;;;;;;;;5072009;28;20013;-73
2022/10/29 10:28:16;;;;;;;14.50;10.30;;;;;;;;;;5071789;28;20035;-76
2022/10/29 10:30:43;;;;;;;24.88;12.70;;;;;;;;;;5071816;28;20025;-72
2022/10/29 10:33:25;;;;;;;23.52;13.50;;;;;;;;;;5071814;28;20027;-72
2022/10/29 10:35:52;;;;;;;12.98;11.70;;;;;;;;;;5058322;28;20111;-72
2022/10/29 10:38:19;;;;;;;18.30;13.55;;;;;;;;;;5071574;28;20103;-73
2022/10/29 10:40:53;;;;;;;16.95;15.15;;;;;;;;;;5067596;28;20029;-73
2022/10/29 10:43:20;;;;;;;17.27;15.52;;;;;;;;;;5071595;28;20032;-72
2022/10/29 10:45:52;;;;;;;20.10;15.52;;;;;;;;;;5071569;28;20024;-72
2022/10/29 10:48:18;;;;;;;19.40;17.70;;;;;;;;;;5071248;28;20055;-74
2022/10/29 10:50:44;;;;;;;22.60;19.98;;;;;;;;;;5071467;28;20031;-76
2022/10/29 10:53:18;;;;;;;15.55;14.13;;;;;;;;;;5071251;28;20009;-72
2022/10/29 10:55:50;;;;;;;12.82;11.55;;;;;;;;;;5071457;28;20437;-74
2022/10/29 10:58:19;;;;;;;12.70;11.40;;;;;;;;;;5071329;28;20051;-75
2022/10/29 11:00:51;;;;;;;13.82;12.52;;;;;;;;;;5071377;28;20375;-75
2022/10/29 11:03:23;;;;;;;16.30;11.95;;;;;;;;;;5071346;28;20031;-73
2022/10/29 11:05:54;;;;;;;14.25;9.52;;;;;;;;;;5071469;28;20109;-74
2022/10/29 11:08:24;;;;;;;10.38;9.20;;;;;;;;;;5071458;28;20927;-72
2022/10/29 11:11:08;;;;;;;11.93;9.70;;;;;;;;;;5066323;28;20472;-76
2022/10/29 11:13:34;;;;;;;9.93;8.43;;;;;;;;;;5070607;28;20017;-74
2022/10/29 11:16:03;;;;;;;9.02;7.50;;;;;;;;;;5071407;28;20506;-75
2022/10/29 11:18:29;;;;;;;8.88;7.60;;;;;;;;;;5071232;28;20032;-74
2022/10/29 11:21:09;;;;;;;10.60;7.95;;;;;;;;;;5070891;28;20020;-74
2022/10/29 11:23:58;;;;;;;12.73;11.25;;;;;;;;;;5073013;28;20029;-72
2022/10/29 11:26:24;;;;;;;13.57;8.70;;;;;;;;;;4974066;28;20039;-71
2022/10/29 11:28:55;;;;;;;8.68;7.40;;;;;;;;;;4974251;28;20471;-71
2022/10/29 11:31:23;;;;;;;13.32;9.60;;;;;;;;;;4973883;28;20035;-73
2022/10/29 11:33:52;;;;;;;14.73;9.52;;;;;;;;;;4973745;28;20417;-74
2022/10/29 11:36:22;;;;;;;10.05;8.40;;;;;;;;;;4973561;28;20066;-74
2022/10/29 11:38:54;;;;;;;6.70;6.10;;;;;;;;;;4973742;28;20027;-77
2022/10/29 11:41:20;;;;;;;7.65;5.55;;;;;;;;;;4970352;28;20046;-71
2022/10/29 11:43:46;;;;;;;8.15;6.35;;;;;;;;;;4973642;28;20035;-74
2022/10/29 11:46:20;;;;;;;8.07;6.78;;;;;;;;;;4972964;28;20033;-72
2022/10/29 11:49:13;;;;;;;8.25;6.60;;;;;;;;;;4973436;28;20051;-75
2022/10/29 11:51:44;;;;;;;7.50;6.40;;;;;;;;;;4939018;28;20035;-75
2022/10/29 11:54:19;;;;;;;8.77;7.88;;;;;;;;;;4973411;28;20023;-74
2022/10/29 11:56:57;;;;;;;8.60;6.68;;;;;;;;;;4973298;28;20070;-75
2022/10/29 11:59:32;;;;;;;9.20;6.45;;;;;;;;;;4973262;28;20027;-75
2022/10/29 12:01:58;;;;;;;9.80;5.70;;;;;;;;;;4973222;28;20043;-71
2022/10/29 12:04:26;;;;;;;9.70;5.57;;;;;;;;;;5066228;28;20037;-74
2022/10/29 12:07:10;;;;;;;8.88;5.63;;;;;;;;;;5074158;28;20075;-74
2022/10/29 12:09:49;;;;;;;9.05;7.25;;;;;;;;;;5074123;28;20028;-70
2022/10/29 12:12:21;;;;;;;9.43;5.68;;;;;;;;;;5066155;28;20024;-72
2022/10/29 12:15:08;;;;;;;9.48;6.05;;;;;;;;;;5073788;28;20488;-74
2022/10/29 12:17:39;;;;;;;12.60;7.53;;;;;;;;;;5073724;28;20033;-77
2022/10/29 12:20:14;;;;;;;9.35;7.10;;;;;;;;;;5073574;28;20036;-75
2022/10/29 12:22:41;;;;;;;13.20;6.95;;;;;;;;;;5073835;28;20035;-77
2022/10/29 12:25:26;;;;;;;7.63;6.30;;;;;;;;;;5074008;28;20021;-76
2022/10/29 12:28:04;;;;;;;9.35;5.60;;;;;;;;;;5074103;28;20104;-76
2022/10/29 12:30:34;;;;;;;6.22;5.60;;;;;;;;;;5055493;28;20116;-76
2022/10/29 12:33:06;;;;;;;5.70;4.75;;;;;;;;;;5073883;28;20432;-73
2022/10/29 12:35:35;;;;;;;7.57;5.22;;;;;;;;;;5072977;28;20025;-73
2022/10/29 12:38:01;;;;;;;5.50;5.00;;;;;;;;;;5073480;28;20074;-74
2022/10/29 12:40:33;;;;;;;9.98;8.10;;;;;;;;;;5071968;28;20103;-73
2022/10/29 12:43:02;;;;;;;7.53;5.82;;;;;;;;;;5072626;28;20068;-73
2022/10/29 12:45:40;;;;;;;10.45;5.68;;;;;;;;;;5073194;28;20017;-73
2022/10/29 12:48:12;;;;;;;8.13;5.55;;;;;;;;;;5073091;28;20044;-73
2022/10/29 12:50:54;;;;;;;7.07;5.65;;;;;;;;;;5073173;28;20028;-72
2022/10/29 12:53:26;;;;;;;10.98;5.18;;;;;;;;;;5059978;28;20028;-73
2022/10/29 12:55:52;;;;;;;7.65;5.45;;;;;;;;;;5073193;28;20462;-72
2022/10/29 12:58:37;;;;;;;7.20;5.80;;;;;;;;;;5073050;28;20070;-72
2022/10/29 13:01:03;;;;;;;13.30;7.00;;;;;;;;;;5072963;28;20029;-76
2022/10/29 13:03:48;;;;;;;12.10;7.35;;;;;;;;;;5072976;28;20024;-77
2022/10/29 13:06:32;;;;;;;7.95;6.95;;;;;;;;;;5072504;28;20027;-74
2022/10/29 13:09:10;;;;;;;12.10;8.02;;;;;;;;;;5072904;28;20025;-73
2022/10/29 13:11:46;;;;;;;10.95;8.43;;;;;;;;;;5065142;28;20377;-73
2022/10/29 13:14:12;;;;;;;16.30;8.48;;;;;;;;;;5072870;28;20395;-74
2022/10/29 13:16:40;;;;;;;12.85;8.70;;;;;;;;;;5072792;28;20036;-73
2022/10/29 13:19:17;;;;;;;14.02;9.90;;;;;;;;;;5072788;28;20036;-72
2022/10/29 13:21:57;;;;;;;11.13;8.38;;;;;;;;;;5072804;28;20124;-73
2022/10/29 13:24:23;;;;;;;12.07;9.50;;;;;;;;;;5072960;28;20482;-73
2022/10/29 13:27:16;;;;;;;11.85;9.18;;;;;;;;;;5054989;28;20036;-73
2022/10/29 13:29:43;;;;;;;13.45;9.98;;;;;;;;;;5042539;28;20036;-72
2022/10/29 13:32:28;;;;;;;12.80;9.48;;;;;;;;;;5073040;28;20383;-76
2022/10/29 13:34:56;;;;;;;14.30;10.95;;;;;;;;;;5072759;28;20020;-72
2022/10/29 13:37:38;;;;;;;14.75;10.85;;;;;;;;;;5072727;28;20054;-72
2022/10/29 13:40:22;;;;;;;15.32;10.48;;;;;;;;;;5072643;28;20031;-73
2022/10/29 13:43:00;;;;;;;16.23;11.88;;;;;;;;;;5072594;28;20089;-73
2022/10/29 13:45:27;;;;;;;17.80;11.80;;;;;;;;;;5071914;28;20025;-72
2022/10/29 13:48:01;;;;;;;22.98;11.40;;;;;;;;;;5070104;28;20147;-73
2022/10/29 13:50:27;;;;;;;15.38;10.50;;;;;;;;;;5071991;28;20103;-72
2022/10/29 13:52:58;;;;;;;16.40;10.30;;;;;;;;;;5072538;28;20049;-74
2022/10/29 13:55:25;;;;;;;17.92;11.43;;;;;;;;;;5069339;28;20032;-70
2022/10/29 13:57:51;;;;;;;118.00;81.47;;;;;;;;;;5064522;28;20051;-71
2022/10/29 14:00:18;;;;;;;104.05;73.15;;;;;;;;;;5069653;28;20475;-75
2022/10/29 14:03:03;;;;;;;125.63;90.78;;;;;;;;;;5072085;28;20029;-72
2022/10/29 14:05:38;;;;;;;142.95;100.95;;;;;;;;;;5072338;28;20680;-70
2022/10/29 14:08:11;;;;;;;55.90;40.95;;;;;;;;;;5072046;28;20033;-76
2022/10/29 14:10:40;;;;;;;70.03;47.42;;;;;;;;;;5069734;28;20494;-72
2022/10/29 14:13:06;;;;;;;122.15;92.25;;;;;;;;;;5044378;28;20040;-71
2022/10/29 14:15:33;;;;;;;62.85;43.83;;;;;;;;;;5071661;28;20020;-70
2022/10/29 14:18:16;;;;;;;71.70;53.58;;;;;;;;;;5071754;28;20036;-70
2022/10/29 14:20:42;;;;;;;42.45;32.40;;;;;;;;;;5070817;28;20052;-70
2022/10/29 14:23:08;;;;;;;21.75;15.43;;;;;;;;;;5071424;28;20036;-71
2022/10/29 14:25:35;;;;;;;37.33;24.02;;;;;;;;;;5065827;28;20545;-71
2022/10/29 14:28:16;;;;;;;40.80;29.15;;;;;;;;;;5071897;28;20020;-75
2022/10/29 14:30:42;;;;;;;35.75;27.48;;;;;;;;;;5071764;28;20048;-70
2022/10/29 14:33:27;;;;;;;42.65;29.02;;;;;;;;;;5071716;28;20017;-73
2022/10/29 14:36:14;;;;;;;23.20;16.67;;;;;;;;;;5059146;28;20024;-74